Aérodrome :
LOGIN :

S'inscrire | Disclaimer

   EN    FR    IT 

 










Légende :    VFR   VFR Marginal   IFR   IFR Intensif   IFR Très Intensif
Visi : 
Plafond : 
>= 8 km
>= 3000ft
5 à 8 km
1000 à 3000 ft
1500m à 5 km
500 à 1000 ft
800 à 1500m
200 à 500 ft
< 800m
< 200 ft
Symboles :   Orages  Brouillard  Fortes neiges  Fortes précipitations  Vent > 20 kt
SIGMETs :   Divers  Orages  Givrage  Turbulence  Onde Orograph.  Cendres Volcan.






- Altitude de l'aérodrome : 16 ft
- Code IATA : EAS


LESO - San Sebastian Fuenterrabia

DERNIER METAR :
  • 271530Z 36006KT 300V050 9999 SCT026 SCT041 17/11 Q1024

METARs EXPIRÉS :
  • 271500Z 35006KT 300V060 9999 SCT024 SCT037 17/11 Q1023
  • 271430Z 34006KT 280V050 9999 SCT025 BKN055 17/11 Q1024
  • 271400Z 35005KT 300V030 9999 SCT022 BKN053 17/11 Q1024
  • 271330Z 36005KT 300V060 9999 SCT022 BKN048 17/12 Q1024
  • 271300Z 35005KT 300V050 9999 BKN022 OVC043 17/12 Q1024
  • 271230Z 36005KT 320V060 9999 SCT022 OVC041 17/12 Q1024
  • 271200Z 01004KT 320V070 9999 SCT023 OVC041 17/12 Q1024
  • 271130Z 35004KT 300V030 9999 SCT023 OVC042 17/12 Q1024

TAF TAF LESO
Valide du 27 à 12h jusqu'au 28 à 12h UTC


271100Z 2712/2812 VRB05KT 9999 SCT025 BKN050 TX20/2812Z TN11/2803Z
PROB30 2712/2718 35010KT
PROB30 2810/2812 02010KT



MET'MAP, la Météo Aéronautique d'un coup d'oeil ! - Copyright ORBIFLY Décembre 2007 - Disclaimer

ORBIFLY MET'MAP TEAM :

Programmation & Développement : Alexandra Zaïnal
Sur une idée originale de : Baudouin d'Aumeries
Soutien technique & logistique : Manuel Goepfert
Assistance : Marc-Olivier Méhu




SOURCES & CREDITS :

   NOAA